Time;durP1;ratioP1;P1;durP2;ratioP2;P2;SDS_P1;SDS_P2;PMS_P1;PMS_P2;Temp;Humidity;BMP_temperature;BMP_pressure;BME280_temperature;BME280_humidity;BME280_pressure;Samples;Min_cycle;Max_cycle;Signal;HPM_P1;HPM_P2
2022/10/29 00:00:49;;;;;;;24.70;8.33;;;;;;;;;;5068019;28;20049;-62
2022/10/29 00:03:15;;;;;;;28.33;9.33;;;;;;;;;;5062482;28;20053;-63
2022/10/29 00:05:41;;;;;;;29.97;10.20;;;;;;;;;;5047660;28;20051;-63
2022/10/29 00:08:07;;;;;;;26.27;9.53;;;;;;;;;;5047837;28;20053;-62
2022/10/29 00:10:33;;;;;;;36.67;10.77;;;;;;;;;;5047322;28;20445;-62
2022/10/29 00:13:01;;;;;;;31.63;11.10;;;;;;;;;;5052424;28;20063;-62
2022/10/29 00:15:27;;;;;;;31.53;10.13;;;;;;;;;;5070872;28;20043;-62
2022/10/29 00:17:53;;;;;;;22.50;9.07;;;;;;;;;;5071391;28;20418;-62
2022/10/29 00:20:20;;;;;;;27.33;8.43;;;;;;;;;;5071407;28;20080;-63
2022/10/29 00:22:46;;;;;;;30.63;10.40;;;;;;;;;;5069390;28;20036;-62
2022/10/29 00:25:12;;;;;;;30.03;10.80;;;;;;;;;;5070456;28;20063;-63
2022/10/29 00:27:38;;;;;;;33.17;11.77;;;;;;;;;;5071272;28;20049;-62
2022/10/29 00:30:05;;;;;;;33.80;12.03;;;;;;;;;;5053376;28;20128;-62
2022/10/29 00:32:31;;;;;;;49.40;14.13;;;;;;;;;;5051122;28;20130;-62
2022/10/29 00:34:57;;;;;;;37.93;13.03;;;;;;;;;;5051308;28;20045;-62
2022/10/29 00:37:23;;;;;;;34.37;12.73;;;;;;;;;;5050765;28;20103;-62
2022/10/29 00:39:49;;;;;;;41.30;13.47;;;;;;;;;;5051335;28;20048;-62
2022/10/29 00:42:15;;;;;;;49.83;14.10;;;;;;;;;;5051183;28;20041;-62
2022/10/29 00:44:42;;;;;;;40.17;14.37;;;;;;;;;;5051846;28;20088;-62
2022/10/29 00:47:13;;;;;;;32.33;12.23;;;;;;;;;;5051057;28;20503;-62
2022/10/29 00:49:41;;;;;;;44.07;13.33;;;;;;;;;;5050991;28;20056;-62
2022/10/29 00:52:07;;;;;;;37.80;13.50;;;;;;;;;;5050700;28;20045;-62
2022/10/29 00:54:37;;;;;;;36.43;13.03;;;;;;;;;;5050697;28;20485;-63
2022/10/29 00:57:07;;;;;;;52.63;14.77;;;;;;;;;;5050784;28;20053;-62
2022/10/29 00:59:33;;;;;;;38.67;13.93;;;;;;;;;;5068603;28;20074;-62
2022/10/29 01:01:59;;;;;;;32.97;11.77;;;;;;;;;;5070755;28;20051;-62
2022/10/29 01:04:25;;;;;;;43.00;13.37;;;;;;;;;;5065330;28;20048;-62
2022/10/29 01:06:51;;;;;;;33.73;11.93;;;;;;;;;;5050666;28;20367;-62
2022/10/29 01:09:17;;;;;;;40.17;13.87;;;;;;;;;;5050554;28;20518;-62
2022/10/29 01:11:50;;;;;;;34.53;11.57;;;;;;;;;;5061516;28;20053;-62
2022/10/29 01:14:35;;;;;;;37.90;12.65;;;;;;;;;;5069019;28;20443;-62
2022/10/29 01:17:07;;;;;;;28.53;11.20;;;;;;;;;;5070556;28;20052;-62
2022/10/29 01:19:45;;;;;;;33.40;11.97;;;;;;;;;;5050738;28;20487;-62
2022/10/29 01:22:17;;;;;;;27.90;12.17;;;;;;;;;;5049929;28;20400;-62
2022/10/29 01:24:58;;;;;;;36.00;12.87;;;;;;;;;;5057590;28;20105;-62
2022/10/29 01:27:32;;;;;;;43.93;14.03;;;;;;;;;;5055281;28;20069;-62
2022/10/29 01:30:04;;;;;;;39.70;13.77;;;;;;;;;;5050255;28;20045;-63
2022/10/29 01:32:49;;;;;;;48.13;15.27;;;;;;;;;;5050121;28;20453;-62
2022/10/29 01:35:23;;;;;;;46.57;14.73;;;;;;;;;;5050281;28;20099;-62
2022/10/29 01:38:11;;;;;;;44.73;14.23;;;;;;;;;;5049696;28;20526;-62
2022/10/29 01:40:50;;;;;;;56.20;17.50;;;;;;;;;;5050415;28;20056;-62
2022/10/29 01:43:31;;;;;;;53.03;16.13;;;;;;;;;;5069162;28;20055;-62
2022/10/29 01:46:04;;;;;;;55.80;15.97;;;;;;;;;;5051830;28;20131;-62
2022/10/29 01:48:33;;;;;;;42.85;14.13;;;;;;;;;;5050689;28;20049;-62
2022/10/29 01:51:02;;;;;;;54.27;14.83;;;;;;;;;;5050081;28;20376;-62
2022/10/29 01:53:29;;;;;;;54.37;15.67;;;;;;;;;;5049530;28;20053;-62
2022/10/29 01:55:55;;;;;;;51.53;13.23;;;;;;;;;;5055036;28;20057;-62
2022/10/29 01:58:21;;;;;;;31.63;10.40;;;;;;;;;;5049870;28;20392;-62
2022/10/29 02:01:06;;;;;;;34.43;11.13;;;;;;;;;;5049668;28;20521;-62
2022/10/29 02:03:38;;;;;;;33.93;9.57;;;;;;;;;;5049591;28;20057;-62
2022/10/29 02:06:14;;;;;;;33.57;11.70;;;;;;;;;;5048284;28;20627;-62
2022/10/29 02:08:59;;;;;;;28.43;10.40;;;;;;;;;;5049043;28;20053;-62
2022/10/29 02:11:35;;;;;;;41.40;11.63;;;;;;;;;;5066807;28;20426;-62
2022/10/29 02:14:07;;;;;;;41.20;12.73;;;;;;;;;;5068455;28;20048;-62
2022/10/29 02:16:34;;;;;;;39.50;13.00;;;;;;;;;;5068954;28;20131;-62
2022/10/29 02:19:00;;;;;;;50.10;15.00;;;;;;;;;;5068288;28;20048;-62
2022/10/29 02:21:26;;;;;;;40.50;14.20;;;;;;;;;;5068933;28;20052;-62
2022/10/29 02:23:52;;;;;;;36.17;13.57;;;;;;;;;;5056236;28;20545;-62
2022/10/29 02:26:18;;;;;;;31.20;11.80;;;;;;;;;;5047545;28;20045;-62
2022/10/29 02:28:44;;;;;;;49.67;15.27;;;;;;;;;;5048934;28;20493;-62
2022/10/29 02:31:10;;;;;;;59.93;17.63;;;;;;;;;;5049279;28;20396;-62
2022/10/29 02:33:37;;;;;;;55.07;19.10;;;;;;;;;;5048228;28;20045;-62
2022/10/29 02:36:03;;;;;;;56.20;19.67;;;;;;;;;;5068572;28;20446;-62
2022/10/29 02:38:29;;;;;;;57.80;19.73;;;;;;;;;;5080241;28;20054;-62
2022/10/29 02:40:55;;;;;;;69.63;24.27;;;;;;;;;;5089220;28;20494;-62
2022/10/29 02:43:21;;;;;;;114.63;32.47;;;;;;;;;;5088880;28;20513;-62
2022/10/29 02:45:47;;;;;;;103.80;30.53;;;;;;;;;;5069151;28;20044;-62
2022/10/29 02:48:13;;;;;;;145.80;37.60;;;;;;;;;;5068634;28;20510;-63
2022/10/29 02:50:39;;;;;;;111.90;31.63;;;;;;;;;;5067900;28;20454;-63
2022/10/29 02:53:05;;;;;;;240.37;46.83;;;;;;;;;;5057624;28;20178;-62
2022/10/29 02:55:31;;;;;;;283.97;50.43;;;;;;;;;;5062038;28;20044;-62
2022/10/29 02:57:57;;;;;;;349.70;58.33;;;;;;;;;;5067378;28;20580;-63
2022/10/29 03:00:23;;;;;;;255.80;42.33;;;;;;;;;;5068069;28;20059;-62
2022/10/29 03:02:51;;;;;;;454.43;61.60;;;;;;;;;;5068455;28;20154;-63
2022/10/29 03:05:17;;;;;;;470.87;62.03;;;;;;;;;;5054503;28;20083;-62
2022/10/29 03:07:43;;;;;;;256.10;46.33;;;;;;;;;;5048916;28;20499;-63
2022/10/29 03:10:09;;;;;;;221.87;41.53;;;;;;;;;;5046985;28;20049;-62
2022/10/29 03:12:35;;;;;;;176.53;34.97;;;;;;;;;;5048058;28;20057;-62
2022/10/29 03:15:01;;;;;;;63.40;21.43;;;;;;;;;;5048193;28;20569;-63
2022/10/29 03:17:27;;;;;;;159.10;36.50;;;;;;;;;;5047050;28;20075;-62
2022/10/29 03:19:53;;;;;;;103.23;24.23;;;;;;;;;;5048421;28;20060;-62
2022/10/29 03:22:19;;;;;;;400.13;58.13;;;;;;;;;;5048897;28;20037;-62
2022/10/29 03:24:45;;;;;;;130.67;33.60;;;;;;;;;;5054869;28;20036;-63
2022/10/29 03:27:11;;;;;;;147.63;34.27;;;;;;;;;;5068383;28;20102;-62
2022/10/29 03:29:37;;;;;;;127.53;30.93;;;;;;;;;;5068025;28;20036;-63
2022/10/29 03:32:03;;;;;;;76.63;25.57;;;;;;;;;;5068472;28;20040;-62
2022/10/29 03:34:29;;;;;;;87.83;27.37;;;;;;;;;;5068165;28;20060;-63
2022/10/29 03:36:55;;;;;;;80.80;24.83;;;;;;;;;;5088362;28;20048;-63
2022/10/29 03:39:21;;;;;;;81.53;26.43;;;;;;;;;;5088575;28;20040;-63
2022/10/29 03:41:47;;;;;;;62.83;22.83;;;;;;;;;;5087817;28;20055;-62
2022/10/29 03:44:13;;;;;;;78.47;25.33;;;;;;;;;;5083702;28;20158;-63
2022/10/29 03:46:39;;;;;;;84.70;26.43;;;;;;;;;;5072032;28;20498;-62
2022/10/29 03:49:05;;;;;;;74.00;26.27;;;;;;;;;;5071353;28;20556;-62
2022/10/29 03:51:32;;;;;;;72.50;24.93;;;;;;;;;;5051488;28;20037;-62
2022/10/29 03:53:58;;;;;;;107.27;32.47;;;;;;;;;;5052128;28;20498;-62
2022/10/29 03:56:24;;;;;;;102.63;32.63;;;;;;;;;;5051898;28;20122;-62
2022/10/29 03:58:50;;;;;;;111.17;33.47;;;;;;;;;;5051581;28;20081;-63
2022/10/29 04:01:16;;;;;;;139.23;33.83;;;;;;;;;;5069543;28;20055;-62
2022/10/29 04:03:42;;;;;;;194.43;42.43;;;;;;;;;;5072063;28;20048;-63
2022/10/29 04:06:13;;;;;;;282.37;49.60;;;;;;;;;;5052629;28;20041;-63
2022/10/29 04:08:39;;;;;;;219.17;42.53;;;;;;;;;;5071587;28;20049;-63
2022/10/29 04:11:06;;;;;;;157.20;37.33;;;;;;;;;;5071535;28;20055;-63
2022/10/29 04:13:33;;;;;;;217.63;40.80;;;;;;;;;;5071325;28;20053;-63
2022/10/29 04:15:59;;;;;;;147.73;37.50;;;;;;;;;;5054628;28;20033;-63
2022/10/29 04:18:25;;;;;;;185.23;38.17;;;;;;;;;;5051419;28;20530;-62
2022/10/29 04:20:52;;;;;;;189.50;39.37;;;;;;;;;;5051568;28;20136;-62
2022/10/29 04:23:18;;;;;;;201.03;44.70;;;;;;;;;;5051231;28;20051;-62
2022/10/29 04:25:54;;;;;;;235.47;43.53;;;;;;;;;;5052621;28;20133;-62
2022/10/29 04:28:20;;;;;;;173.27;35.20;;;;;;;;;;5051643;28;20050;-62
2022/10/29 04:30:46;;;;;;;301.00;52.73;;;;;;;;;;5071355;28;20117;-63
2022/10/29 04:33:12;;;;;;;259.03;46.37;;;;;;;;;;5056211;28;20045;-63
2022/10/29 04:35:38;;;;;;;278.63;49.43;;;;;;;;;;5067497;28;20121;-62
2022/10/29 04:38:08;;;;;;;91.03;25.50;;;;;;;;;;5070736;28;20041;-63
2022/10/29 04:40:34;;;;;;;70.67;21.97;;;;;;;;;;5070899;28;20044;-63
2022/10/29 04:43:00;;;;;;;57.87;20.27;;;;;;;;;;5070892;28;20557;-63
2022/10/29 04:45:26;;;;;;;87.30;25.33;;;;;;;;;;5056547;28;20044;-62
2022/10/29 04:48:02;;;;;;;83.43;25.03;;;;;;;;;;5050827;28;20515;-62
2022/10/29 04:50:28;;;;;;;143.20;35.00;;;;;;;;;;5050563;28;20048;-62
2022/10/29 04:53:01;;;;;;;52.70;20.77;;;;;;;;;;5050804;28;20048;-63
2022/10/29 04:55:27;;;;;;;149.38;34.67;;;;;;;;;;5051921;28;20041;-62
2022/10/29 04:57:53;;;;;;;60.63;20.27;;;;;;;;;;5049091;28;20827;-62
2022/10/29 05:00:20;;;;;;;197.27;39.57;;;;;;;;;;5062601;28;20044;-63
2022/10/29 05:02:50;;;;;;;252.47;46.93;;;;;;;;;;5069802;28;20075;-62
2022/10/29 05:05:16;;;;;;;126.60;31.97;;;;;;;;;;5069153;28;20043;-62
2022/10/29 05:07:42;;;;;;;162.67;42.37;;;;;;;;;;5070716;28;20079;-63
2022/10/29 05:10:09;;;;;;;175.97;38.30;;;;;;;;;;5070416;28;20056;-63
2022/10/29 05:12:35;;;;;;;181.00;41.80;;;;;;;;;;5070273;28;20088;-63
2022/10/29 05:15:01;;;;;;;185.40;41.60;;;;;;;;;;5069139;28;20133;-62
2022/10/29 05:17:27;;;;;;;233.63;44.93;;;;;;;;;;5062632;28;20487;-63
2022/10/29 05:19:53;;;;;;;241.37;43.47;;;;;;;;;;5050519;28;20044;-63
2022/10/29 05:22:19;;;;;;;214.07;42.07;;;;;;;;;;5050137;28;20052;-63
2022/10/29 05:24:45;;;;;;;210.47;45.20;;;;;;;;;;5056377;28;20040;-63
2022/10/29 05:27:11;;;;;;;220.13;44.10;;;;;;;;;;5070202;28;20044;-63
2022/10/29 05:29:37;;;;;;;143.97;37.10;;;;;;;;;;5061754;28;20049;-63
2022/10/29 05:32:03;;;;;;;101.60;30.23;;;;;;;;;;5053666;28;20040;-62
2022/10/29 05:34:29;;;;;;;122.60;36.17;;;;;;;;;;5067829;28;20433;-62
2022/10/29 05:36:55;;;;;;;89.37;31.37;;;;;;;;;;5069971;28;20048;-62
2022/10/29 05:39:21;;;;;;;100.83;32.43;;;;;;;;;;5069986;28;20044;-62
2022/10/29 05:41:47;;;;;;;87.83;31.37;;;;;;;;;;5070137;28;20036;-62
2022/10/29 05:44:13;;;;;;;93.77;30.37;;;;;;;;;;5062104;28;20114;-62
2022/10/29 05:46:39;;;;;;;98.27;32.67;;;;;;;;;;5049415;28;20053;-62
2022/10/29 05:49:05;;;;;;;91.47;31.30;;;;;;;;;;5049680;28;20059;-62
2022/10/29 05:51:31;;;;;;;81.97;30.17;;;;;;;;;;5049593;28;20041;-62
2022/10/29 05:53:57;;;;;;;81.23;30.40;;;;;;;;;;5054389;28;20091;-62
2022/10/29 05:56:23;;;;;;;86.57;30.63;;;;;;;;;;5067683;28;20044;-62
2022/10/29 05:58:49;;;;;;;81.40;28.83;;;;;;;;;;5069722;28;20140;-62
2022/10/29 06:01:18;;;;;;;70.27;26.93;;;;;;;;;;5053652;28;20053;-62
2022/10/29 06:03:44;;;;;;;65.47;26.13;;;;;;;;;;5049667;28;20533;-62
2022/10/29 06:06:11;;;;;;;74.20;28.13;;;;;;;;;;5049568;28;20131;-62
2022/10/29 06:08:37;;;;;;;73.47;28.43;;;;;;;;;;5049903;28;20049;-62
2022/10/29 06:11:03;;;;;;;68.50;26.00;;;;;;;;;;5061412;28;20402;-62
2022/10/29 06:13:29;;;;;;;77.23;28.03;;;;;;;;;;5069149;28;20057;-62
2022/10/29 06:15:59;;;;;;;70.33;27.87;;;;;;;;;;5056244;28;20049;-62
2022/10/29 06:18:28;;;;;;;67.93;25.47;;;;;;;;;;5048727;28;20041;-62
2022/10/29 06:20:56;;;;;;;69.70;27.53;;;;;;;;;;5050324;28;20079;-62
2022/10/29 06:23:22;;;;;;;79.63;27.67;;;;;;;;;;5060486;28;20052;-62
2022/10/29 06:25:48;;;;;;;71.03;24.57;;;;;;;;;;5068921;28;20040;-62
2022/10/29 06:28:15;;;;;;;64.83;24.80;;;;;;;;;;5069422;28;20048;-63
2022/10/29 06:30:45;;;;;;;46.50;21.20;;;;;;;;;;5058752;28;20513;-62
2022/10/29 06:33:11;;;;;;;89.13;29.07;;;;;;;;;;5048619;28;20094;-62
2022/10/29 06:35:37;;;;;;;119.47;34.67;;;;;;;;;;5067966;28;20065;-62
2022/10/29 06:38:03;;;;;;;62.93;25.07;;;;;;;;;;5058107;28;20041;-62
2022/10/29 06:40:29;;;;;;;59.53;22.97;;;;;;;;;;5055381;28;20661;-62
2022/10/29 06:43:03;;;;;;;42.07;19.17;;;;;;;;;;5068814;28;20040;-62
2022/10/29 06:45:29;;;;;;;40.92;19.17;;;;;;;;;;5050691;28;20045;-62
2022/10/29 06:47:55;;;;;;;94.63;29.43;;;;;;;;;;5053398;28;20036;-62
2022/10/29 06:50:22;;;;;;;39.20;17.67;;;;;;;;;;5067999;28;20426;-62
2022/10/29 06:52:58;;;;;;;48.93;19.07;;;;;;;;;;5067040;28;20129;-62
2022/10/29 06:55:24;;;;;;;45.43;19.10;;;;;;;;;;5047993;28;20076;-62
2022/10/29 06:58:00;;;;;;;62.87;22.80;;;;;;;;;;5046315;28;20049;-62
2022/10/29 07:00:27;;;;;;;97.77;31.67;;;;;;;;;;5047569;28;20032;-62
2022/10/29 07:02:54;;;;;;;72.83;26.60;;;;;;;;;;5046063;28;20495;-62
2022/10/29 07:05:20;;;;;;;63.37;25.93;;;;;;;;;;5046497;28;20044;-62
2022/10/29 07:07:46;;;;;;;64.07;25.37;;;;;;;;;;5048265;28;20069;-62
2022/10/29 07:10:12;;;;;;;55.83;23.47;;;;;;;;;;5047444;28;20475;-62
2022/10/29 07:12:42;;;;;;;69.23;26.27;;;;;;;;;;5047688;28;20063;-62
2022/10/29 07:15:08;;;;;;;51.47;23.20;;;;;;;;;;5061940;28;20410;-62
2022/10/29 07:17:34;;;;;;;58.03;24.60;;;;;;;;;;5047356;28;20128;-62
2022/10/29 07:20:00;;;;;;;60.10;25.57;;;;;;;;;;5046073;28;20049;-62
2022/10/29 07:22:26;;;;;;;64.87;27.27;;;;;;;;;;5047395;28;20052;-62
2022/10/29 07:24:52;;;;;;;70.17;28.03;;;;;;;;;;5047586;28;20045;-62
2022/10/29 07:27:18;;;;;;;64.13;28.60;;;;;;;;;;5053523;28;20407;-62
2022/10/29 07:29:44;;;;;;;73.97;30.70;;;;;;;;;;5047710;28;20048;-62
2022/10/29 07:32:10;;;;;;;73.30;30.87;;;;;;;;;;5052821;28;20063;-62
2022/10/29 07:34:36;;;;;;;63.47;27.63;;;;;;;;;;5060028;28;20071;-62
2022/10/29 07:37:02;;;;;;;69.87;29.60;;;;;;;;;;5048753;28;20040;-62
2022/10/29 07:39:28;;;;;;;58.80;27.80;;;;;;;;;;5067750;28;20045;-63
2022/10/29 07:41:54;;;;;;;63.37;28.93;;;;;;;;;;5066416;28;20098;-62
2022/10/29 07:44:21;;;;;;;61.23;29.27;;;;;;;;;;5067676;28;20041;-63
2022/10/29 07:46:46;;;;;;;70.03;30.67;;;;;;;;;;5067821;28;20048;-62
2022/10/29 07:49:13;;;;;;;63.13;32.17;;;;;;;;;;5084587;28;20539;-62
2022/10/29 07:51:39;;;;;;;59.93;28.23;;;;;;;;;;5087832;28;20048;-62
2022/10/29 07:54:05;;;;;;;66.07;32.50;;;;;;;;;;5050387;28;20495;-62
2022/10/29 07:56:31;;;;;;;64.57;31.47;;;;;;;;;;5047382;28;20052;-62
2022/10/29 07:58:57;;;;;;;62.97;31.70;;;;;;;;;;5049814;28;20049;-62
2022/10/29 08:01:23;;;;;;;60.13;31.30;;;;;;;;;;5048796;28;20047;-62
2022/10/29 08:03:49;;;;;;;73.03;35.63;;;;;;;;;;5037272;28;20053;-62
2022/10/29 08:06:15;;;;;;;68.80;34.47;;;;;;;;;;5065003;28;20040;-63
2022/10/29 08:08:41;;;;;;;73.20;37.30;;;;;;;;;;5051449;28;20111;-62
2022/10/29 08:11:08;;;;;;;68.57;34.47;;;;;;;;;;5065683;28;20165;-62
2022/10/29 08:13:34;;;;;;;65.30;34.83;;;;;;;;;;5066350;28;20049;-62
2022/10/29 08:16:00;;;;;;;64.10;32.63;;;;;;;;;;5066750;28;20044;-62
2022/10/29 08:18:26;;;;;;;62.93;33.30;;;;;;;;;;5048413;28;20112;-62
2022/10/29 08:20:52;;;;;;;77.27;40.07;;;;;;;;;;5047236;28;20116;-62
2022/10/29 08:23:18;;;;;;;62.07;32.47;;;;;;;;;;5060901;28;20075;-63
2022/10/29 08:25:44;;;;;;;62.03;33.80;;;;;;;;;;5066789;28;20044;-62
2022/10/29 08:28:14;;;;;;;61.47;32.47;;;;;;;;;;5066521;28;20234;-62
2022/10/29 08:30:40;;;;;;;59.50;32.13;;;;;;;;;;5067033;28;20464;-63
2022/10/29 08:33:06;;;;;;;70.00;33.63;;;;;;;;;;5068527;28;20128;-62
2022/10/29 08:35:33;;;;;;;51.77;28.23;;;;;;;;;;5069267;28;20063;-63
2022/10/29 08:37:59;;;;;;;56.00;26.93;;;;;;;;;;5069620;28;20076;-62
2022/10/29 08:40:28;;;;;;;54.03;28.43;;;;;;;;;;5070713;28;20103;-62
2022/10/29 08:42:54;;;;;;;61.73;27.97;;;;;;;;;;5069751;28;20415;-62
2022/10/29 08:45:27;;;;;;;59.53;25.80;;;;;;;;;;5069664;28;20041;-62
2022/10/29 08:48:10;;;;;;;52.00;26.30;;;;;;;;;;5052765;28;20533;-62
2022/10/29 08:50:40;;;;;;;46.77;22.97;;;;;;;;;;5050304;28;20053;-62
2022/10/29 08:53:14;;;;;;;54.80;26.13;;;;;;;;;;5049996;28;20056;-62
2022/10/29 08:55:40;;;;;;;50.47;22.97;;;;;;;;;;5050252;28;20175;-62
2022/10/29 08:58:24;;;;;;;42.60;23.23;;;;;;;;;;5050538;28;20120;-62
2022/10/29 09:00:52;;;;;;;45.70;22.67;;;;;;;;;;5052083;28;20052;-62
2022/10/29 09:03:18;;;;;;;47.73;22.80;;;;;;;;;;5068619;28;20098;-62
2022/10/29 09:05:56;;;;;;;50.87;23.73;;;;;;;;;;5070351;28;20045;-62
2022/10/29 09:08:25;;;;;;;44.60;20.77;;;;;;;;;;5070139;28;20087;-62
2022/10/29 09:10:54;;;;;;;51.47;22.87;;;;;;;;;;5070162;28;20076;-62
2022/10/29 09:13:30;;;;;;;45.47;21.70;;;;;;;;;;5069676;28;20087;-62
2022/10/29 09:16:04;;;;;;;47.93;21.47;;;;;;;;;;5062768;28;20045;-63
2022/10/29 09:18:33;;;;;;;34.47;20.27;;;;;;;;;;5050049;28;20407;-62
2022/10/29 09:21:14;;;;;;;31.93;19.07;;;;;;;;;;5049928;28;20045;-62
2022/10/29 09:23:40;;;;;;;42.53;17.83;;;;;;;;;;5049896;28;20495;-62
2022/10/29 09:26:14;;;;;;;37.40;16.97;;;;;;;;;;5049883;28;20052;-63
2022/10/29 09:28:39;;;;;;;;;;;;;;;;;;5048704;28;20465;-63
2022/10/29 09:31:11;;;;;;;34.57;15.90;;;;;;;;;;5058754;28;20038;-63
2022/10/29 09:33:38;;;;;;;29.77;15.33;;;;;;;;;;5069636;28;20044;-62
2022/10/29 09:36:11;;;;;;;21.37;13.47;;;;;;;;;;5069611;28;20048;-62
2022/10/29 09:38:42;;;;;;;24.27;12.68;;;;;;;;;;5068986;28;20044;-63
2022/10/29 09:41:09;;;;;;;28.20;13.03;;;;;;;;;;5069682;28;20040;-63
2022/10/29 09:44:01;;;;;;;27.07;12.67;;;;;;;;;;5065420;28;20124;-63
2022/10/29 09:46:30;;;;;;;25.40;13.03;;;;;;;;;;5049377;28;20041;-63
2022/10/29 09:48:56;;;;;;;23.87;13.17;;;;;;;;;;5053128;28;20044;-63
2022/10/29 09:51:31;;;;;;;23.17;14.20;;;;;;;;;;5068983;28;20553;-63
2022/10/29 09:53:57;;;;;;;26.97;14.50;;;;;;;;;;5069146;28;20082;-62
2022/10/29 09:56:23;;;;;;;29.67;13.87;;;;;;;;;;5069225;28;20049;-63
2022/10/29 09:58:52;;;;;;;27.63;13.07;;;;;;;;;;5069398;28;20510;-63
2022/10/29 10:01:18;;;;;;;24.00;13.93;;;;;;;;;;5068736;28;20047;-62
2022/10/29 10:03:53;;;;;;;31.87;14.50;;;;;;;;;;5064266;28;20411;-63
2022/10/29 10:06:19;;;;;;;27.80;15.07;;;;;;;;;;5049074;28;20043;-62
2022/10/29 10:09:02;;;;;;;28.93;14.23;;;;;;;;;;5049288;28;20076;-62
2022/10/29 10:11:33;;;;;;;22.05;13.57;;;;;;;;;;5047416;28;20061;-62
2022/10/29 10:13:59;;;;;;;26.77;14.63;;;;;;;;;;5048881;28;20083;-62
2022/10/29 10:16:29;;;;;;;24.70;14.60;;;;;;;;;;5048977;28;20475;-62
2022/10/29 10:18:55;;;;;;;30.77;15.30;;;;;;;;;;5066464;28;20089;-62
2022/10/29 10:21:26;;;;;;;24.77;14.27;;;;;;;;;;5088624;28;20139;-62
2022/10/29 10:23:53;;;;;;;20.40;12.63;;;;;;;;;;5088935;28;20055;-62
2022/10/29 10:26:28;;;;;;;24.23;13.27;;;;;;;;;;5087954;28;20051;-62
2022/10/29 10:29:04;;;;;;;24.50;13.23;;;;;;;;;;5088500;28;20528;-63
2022/10/29 10:31:30;;;;;;;24.77;12.87;;;;;;;;;;5088682;28;20036;-62
2022/10/29 10:33:56;;;;;;;19.93;12.10;;;;;;;;;;5073589;28;20341;-62
2022/10/29 10:36:24;;;;;;;23.33;11.97;;;;;;;;;;5048251;28;20078;-62
2022/10/29 10:38:51;;;;;;;25.07;11.17;;;;;;;;;;5048611;28;20055;-62
2022/10/29 10:41:22;;;;;;;23.57;12.53;;;;;;;;;;5048055;28;20119;-62
2022/10/29 10:43:48;;;;;;;25.10;11.83;;;;;;;;;;5048678;28;20041;-62
2022/10/29 10:46:25;;;;;;;22.53;12.27;;;;;;;;;;5048262;28;20052;-62
2022/10/29 10:49:03;;;;;;;23.03;12.57;;;;;;;;;;5048273;28;20045;-62
2022/10/29 10:51:30;;;;;;;20.10;12.13;;;;;;;;;;5047839;28;20799;-62
2022/10/29 10:53:57;;;;;;;26.67;11.93;;;;;;;;;;5047541;28;20374;-62
2022/10/29 10:56:23;;;;;;;29.97;12.70;;;;;;;;;;5048112;28;20045;-62
2022/10/29 10:59:12;;;;;;;23.13;13.17;;;;;;;;;;5057246;28;20048;-62
2022/10/29 11:01:43;;;;;;;28.60;12.37;;;;;;;;;;5066221;28;20048;-62
2022/10/29 11:04:12;;;;;;;23.37;13.00;;;;;;;;;;5063564;28;20045;-62
2022/10/29 11:06:40;;;;;;;30.30;13.87;;;;;;;;;;5067801;28;20059;-62
2022/10/29 11:09:25;;;;;;;28.67;13.03;;;;;;;;;;5066479;28;20040;-62
2022/10/29 11:11:57;;;;;;;23.60;13.37;;;;;;;;;;5068054;28;20094;-62
2022/10/29 11:14:26;;;;;;;23.67;13.07;;;;;;;;;;5064037;28;20553;-62
2022/10/29 11:16:55;;;;;;;23.63;12.80;;;;;;;;;;5067930;28;20080;-62
2022/10/29 11:19:24;;;;;;;30.57;14.30;;;;;;;;;;5068259;28;20207;-62
2022/10/29 11:21:56;;;;;;;26.37;14.50;;;;;;;;;;5068174;28;20044;-62
2022/10/29 11:24:30;;;;;;;25.13;13.32;;;;;;;;;;5061877;28;20060;-62
2022/10/29 11:27:00;;;;;;;29.00;14.07;;;;;;;;;;5047297;28;20095;-62
2022/10/29 11:29:29;;;;;;;30.60;14.00;;;;;;;;;;5058829;28;20503;-62
2022/10/29 11:32:14;;;;;;;23.07;12.80;;;;;;;;;;5064791;28;20071;-62
2022/10/29 11:34:59;;;;;;;28.23;13.27;;;;;;;;;;5048133;28;20056;-62
2022/10/29 11:37:31;;;;;;;23.60;13.17;;;;;;;;;;5046452;28;20049;-62
2022/10/29 11:40:00;;;;;;;29.13;13.25;;;;;;;;;;5047302;28;20102;-62
2022/10/29 11:42:26;;;;;;;31.23;14.33;;;;;;;;;;5047650;28;20415;-62
2022/10/29 11:44:52;;;;;;;26.17;13.30;;;;;;;;;;5047858;28;20124;-62
2022/10/29 11:47:24;;;;;;;28.00;13.53;;;;;;;;;;5051914;28;20041;-62
2022/10/29 11:49:57;;;;;;;28.03;13.43;;;;;;;;;;5056634;28;20036;-62
2022/10/29 11:52:49;;;;;;;24.92;13.23;;;;;;;;;;5065672;28;20833;-62
2022/10/29 11:55:33;;;;;;;19.67;12.00;;;;;;;;;;5049624;28;20048;-62
2022/10/29 11:58:03;;;;;;;24.20;11.27;;;;;;;;;;5047750;28;20400;-63
2022/10/29 12:00:34;;;;;;;26.20;12.23;;;;;;;;;;5058664;28;20580;-62
2022/10/29 12:03:00;;;;;;;24.30;12.40;;;;;;;;;;5056474;28;20446;-62
2022/10/29 12:05:26;;;;;;;21.50;10.30;;;;;;;;;;5067831;28;20487;-62
2022/10/29 12:08:11;;;;;;;22.97;11.00;;;;;;;;;;5058850;28;20057;-62
2022/10/29 12:10:37;;;;;;;17.77;10.17;;;;;;;;;;5051573;28;20053;-62
2022/10/29 12:13:23;;;;;;;24.07;10.97;;;;;;;;;;5050699;28;20057;-62
2022/10/29 12:15:56;;;;;;;27.97;11.90;;;;;;;;;;5029791;28;20061;-62
2022/10/29 12:18:32;;;;;;;27.27;11.03;;;;;;;;;;5051207;28;20525;-62
2022/10/29 12:21:24;;;;;;;25.93;10.97;;;;;;;;;;5051020;28;20091;-62
2022/10/29 12:24:09;;;;;;;22.57;11.07;;;;;;;;;;5043259;28;20103;-62
2022/10/29 12:26:41;;;;;;;25.23;12.23;;;;;;;;;;5051119;28;20049;-62
2022/10/29 12:29:11;;;;;;;24.90;12.20;;;;;;;;;;5051306;28;21059;-62
2022/10/29 12:31:41;;;;;;;24.67;10.80;;;;;;;;;;5069043;28;20041;-62
2022/10/29 12:34:27;;;;;;;22.27;11.50;;;;;;;;;;5068829;28;20044;-62
2022/10/29 12:37:07;;;;;;;21.77;10.60;;;;;;;;;;5070962;28;20052;-62
2022/10/29 12:39:38;;;;;;;26.07;11.23;;;;;;;;;;5057157;28;20045;-63
2022/10/29 12:42:07;;;;;;;22.80;10.87;;;;;;;;;;5050633;28;20049;-62
2022/10/29 12:44:56;;;;;;;30.83;11.63;;;;;;;;;;5051472;28;20051;-63
2022/10/29 12:47:24;;;;;;;23.03;11.20;;;;;;;;;;5042049;28;20056;-63
2022/10/29 12:49:54;;;;;;;21.23;11.00;;;;;;;;;;5049667;28;20124;-63
2022/10/29 12:52:20;;;;;;;21.10;11.33;;;;;;;;;;5051211;28;20044;-63
2022/10/29 12:54:46;;;;;;;20.63;11.83;;;;;;;;;;5070030;28;20052;-63
2022/10/29 12:57:12;;;;;;;27.23;12.70;;;;;;;;;;5070638;28;20525;-63
2022/10/29 12:59:39;;;;;;;19.43;10.63;;;;;;;;;;5067355;28;20546;-63
2022/10/29 13:02:18;;;;;;;25.07;11.43;;;;;;;;;;5070562;28;20109;-63
2022/10/29 13:05:10;;;;;;;22.03;10.13;;;;;;;;;;5070306;28;20391;-63
2022/10/29 13:07:38;;;;;;;25.25;12.15;;;;;;;;;;5048619;28;20045;-63
2022/10/29 13:10:28;;;;;;;24.83;12.07;;;;;;;;;;5052009;28;20392;-63
2022/10/29 13:12:54;;;;;;;20.80;11.37;;;;;;;;;;5051475;28;20110;-63
2022/10/29 13:15:29;;;;;;;24.07;11.37;;;;;;;;;;5049807;28;20045;-63
2022/10/29 13:17:56;;;;;;;21.53;10.93;;;;;;;;;;5049573;28;20049;-63
2022/10/29 13:20:32;;;;;;;22.60;12.17;;;;;;;;;;5059756;28;20052;-63
2022/10/29 13:22:59;;;;;;;19.13;10.60;;;;;;;;;;5062417;28;20051;-63
2022/10/29 13:25:28;;;;;;;24.73;10.57;;;;;;;;;;5070143;28;20036;-63
2022/10/29 13:27:54;;;;;;;20.07;10.77;;;;;;;;;;5059658;28;20518;-63
2022/10/29 13:30:25;;;;;;;25.53;11.33;;;;;;;;;;5050893;28;20037;-63
2022/10/29 13:32:52;;;;;;;20.33;10.73;;;;;;;;;;5050455;28;20048;-63
2022/10/29 13:35:18;;;;;;;18.67;9.90;;;;;;;;;;5061630;28;20048;-63
2022/10/29 13:37:51;;;;;;;19.17;11.10;;;;;;;;;;5070078;28;20049;-63
2022/10/29 13:40:30;;;;;;;23.63;9.77;;;;;;;;;;5066988;28;20048;-63
2022/10/29 13:43:00;;;;;;;24.63;10.10;;;;;;;;;;5070089;28;20028;-63
2022/10/29 13:45:27;;;;;;;26.90;9.77;;;;;;;;;;5069639;28;20044;-63
2022/10/29 13:47:59;;;;;;;19.33;10.30;;;;;;;;;;5068131;28;20045;-63
2022/10/29 13:50:25;;;;;;;15.30;8.93;;;;;;;;;;5060618;28;20154;-63
2022/10/29 13:52:52;;;;;;;22.70;8.63;;;;;;;;;;5069652;28;20055;-63
2022/10/29 13:55:19;;;;;;;19.57;8.40;;;;;;;;;;5067872;28;20047;-64
2022/10/29 13:58:06;;;;;;;15.10;8.03;;;;;;;;;;5053692;28;20498;-63
2022/10/29 14:00:34;;;;;;;14.47;6.80;;;;;;;;;;5058770;28;20052;-63
2022/10/29 14:03:09;;;;;;;21.53;8.43;;;;;;;;;;5054936;28;20095;-63
2022/10/29 14:05:39;;;;;;;15.50;8.20;;;;;;;;;;5049590;28;20546;-63
2022/10/29 14:08:24;;;;;;;15.97;7.30;;;;;;;;;;5050338;28;20045;-63
2022/10/29 14:10:59;;;;;;;15.97;7.00;;;;;;;;;;5068599;28;20541;-63
2022/10/29 14:13:25;;;;;;;21.80;7.87;;;;;;;;;;5050377;28;20534;-63
2022/10/29 14:16:07;;;;;;;15.68;6.32;;;;;;;;;;5057266;28;20127;-63
2022/10/29 14:18:37;;;;;;;19.77;6.50;;;;;;;;;;5047446;28;20064;-63
2022/10/29 14:21:04;;;;;;;17.38;6.95;;;;;;;;;;5049144;28;20446;-63
2022/10/29 14:23:31;;;;;;;13.80;6.10;;;;;;;;;;5057109;28;20041;-63
2022/10/29 14:25:59;;;;;;;12.10;5.70;;;;;;;;;;5054550;28;20128;-63
2022/10/29 14:28:25;;;;;;;17.70;6.70;;;;;;;;;;5068612;28;20075;-63